sensor_id;sensor_type;location;lat;lon;timestamp;P1;durP1;ratioP1;P2;durP2;ratioP2
3991;SDS011;2010;48.194;16.394;2023-07-22T00:00:36;2.60;;;2.40;;
3991;SDS011;2010;48.194;16.394;2023-07-22T00:03:07;3.70;;;2.40;;
3991;SDS011;2010;48.194;16.394;2023-07-22T00:05:43;5.33;;;3.43;;
3991;SDS011;2010;48.194;16.394;2023-07-22T00:08:14;2.97;;;2.73;;
3991;SDS011;2010;48.194;16.394;2023-07-22T00:10:46;3.13;;;2.93;;
3991;SDS011;2010;48.194;16.394;2023-07-22T00:13:15;3.57;;;2.63;;
3991;SDS011;2010;48.194;16.394;2023-07-22T00:15:46;2.70;;;2.50;;
3991;SDS011;2010;48.194;16.394;2023-07-22T00:18:18;3.20;;;3.00;;
3991;SDS011;2010;48.194;16.394;2023-07-22T00:20:46;3.30;;;2.70;;
3991;SDS011;2010;48.194;16.394;2023-07-22T00:23:20;4.87;;;2.67;;
3991;SDS011;2010;48.194;16.394;2023-07-22T00:26:01;4.23;;;2.90;;
3991;SDS011;2010;48.194;16.394;2023-07-22T00:28:31;4.50;;;2.77;;
3991;SDS011;2010;48.194;16.394;2023-07-22T00:31:02;2.57;;;2.47;;
3991;SDS011;2010;48.194;16.394;2023-07-22T00:33:34;3.87;;;2.67;;
3991;SDS011;2010;48.194;16.394;2023-07-22T00:36:03;2.77;;;2.47;;
3991;SDS011;2010;48.194;16.394;2023-07-22T00:38:40;3.40;;;2.80;;
3991;SDS011;2010;48.194;16.394;2023-07-22T00:41:10;3.50;;;3.17;;
3991;SDS011;2010;48.194;16.394;2023-07-22T00:43:39;3.90;;;2.80;;
3991;SDS011;2010;48.194;16.394;2023-07-22T00:46:15;4.33;;;3.00;;
3991;SDS011;2010;48.194;16.394;2023-07-22T00:48:45;3.17;;;2.87;;
3991;SDS011;2010;48.194;16.394;2023-07-22T00:51:19;4.20;;;2.83;;
3991;SDS011;2010;48.194;16.394;2023-07-22T00:54:03;6.83;;;3.00;;
3991;SDS011;2010;48.194;16.394;2023-07-22T00:56:33;4.03;;;3.20;;
3991;SDS011;2010;48.194;16.394;2023-07-22T00:59:05;6.97;;;3.27;;
3991;SDS011;2010;48.194;16.394;2023-07-22T01:01:34;3.90;;;3.10;;
3991;SDS011;2010;48.194;16.394;2023-07-22T01:04:13;5.20;;;2.67;;
3991;SDS011;2010;48.194;16.394;2023-07-22T01:06:43;6.60;;;2.93;;
3991;SDS011;2010;48.194;16.394;2023-07-22T01:09:16;3.73;;;2.90;;
3991;SDS011;2010;48.194;16.394;2023-07-22T01:11:46;3.07;;;2.87;;
3991;SDS011;2010;48.194;16.394;2023-07-22T01:14:17;5.50;;;3.43;;
3991;SDS011;2010;48.194;16.394;2023-07-22T01:16:48;4.43;;;2.80;;
3991;SDS011;2010;48.194;16.394;2023-07-22T01:19:19;7.00;;;2.93;;
3991;SDS011;2010;48.194;16.394;2023-07-22T01:21:48;3.10;;;2.83;;
3991;SDS011;2010;48.194;16.394;2023-07-22T01:24:31;3.10;;;2.70;;
3991;SDS011;2010;48.194;16.394;2023-07-22T01:27:02;3.80;;;2.63;;
3991;SDS011;2010;48.194;16.394;2023-07-22T01:29:35;2.90;;;2.70;;
3991;SDS011;2010;48.194;16.394;2023-07-22T01:32:08;5.77;;;3.00;;
3991;SDS011;2010;48.194;16.394;2023-07-22T01:34:52;2.90;;;2.70;;
3991;SDS011;2010;48.194;16.394;2023-07-22T01:37:21;3.30;;;3.00;;
3991;SDS011;2010;48.194;16.394;2023-07-22T01:40:03;2.63;;;2.43;;
3991;SDS011;2010;48.194;16.394;2023-07-22T01:42:40;5.00;;;3.13;;
3991;SDS011;2010;48.194;16.394;2023-07-22T01:45:10;3.83;;;2.90;;
3991;SDS011;2010;48.194;16.394;2023-07-22T01:47:45;7.10;;;3.30;;
3991;SDS011;2010;48.194;16.394;2023-07-22T01:50:13;3.03;;;2.83;;
3991;SDS011;2010;48.194;16.394;2023-07-22T01:52:46;2.87;;;2.67;;
3991;SDS011;2010;48.194;16.394;2023-07-22T01:55:18;3.20;;;3.00;;
3991;SDS011;2010;48.194;16.394;2023-07-22T01:57:56;5.40;;;3.30;;
3991;SDS011;2010;48.194;16.394;2023-07-22T02:00:28;7.43;;;3.03;;
3991;SDS011;2010;48.194;16.394;2023-07-22T02:03:04;4.33;;;3.10;;
3991;SDS011;2010;48.194;16.394;2023-07-22T02:05:35;3.17;;;2.90;;
3991;SDS011;2010;48.194;16.394;2023-07-22T02:08:07;3.47;;;2.97;;
3991;SDS011;2010;48.194;16.394;2023-07-22T02:10:43;3.50;;;3.20;;
3991;SDS011;2010;48.194;16.394;2023-07-22T02:13:11;3.90;;;3.50;;
3991;SDS011;2010;48.194;16.394;2023-07-22T02:15:51;3.77;;;2.70;;
3991;SDS011;2010;48.194;16.394;2023-07-22T02:18:22;3.87;;;3.10;;
3991;SDS011;2010;48.194;16.394;2023-07-22T02:20:52;4.40;;;3.43;;
3991;SDS011;2010;48.194;16.394;2023-07-22T02:23:23;4.10;;;2.97;;
3991;SDS011;2010;48.194;16.394;2023-07-22T02:26:08;5.43;;;3.30;;
3991;SDS011;2010;48.194;16.394;2023-07-22T02:28:40;3.30;;;3.00;;
3991;SDS011;2010;48.194;16.394;2023-07-22T02:31:17;4.40;;;2.47;;
3991;SDS011;2010;48.194;16.394;2023-07-22T02:33:48;3.47;;;3.17;;
3991;SDS011;2010;48.194;16.394;2023-07-22T02:36:20;3.87;;;3.57;;
3991;SDS011;2010;48.194;16.394;2023-07-22T02:38:54;4.13;;;3.10;;
3991;SDS011;2010;48.194;16.394;2023-07-22T02:41:39;3.33;;;3.03;;
3991;SDS011;2010;48.194;16.394;2023-07-22T02:44:10;3.90;;;3.60;;
3991;SDS011;2010;48.194;16.394;2023-07-22T02:46:43;3.63;;;3.33;;
3991;SDS011;2010;48.194;16.394;2023-07-22T02:49:12;3.77;;;3.13;;
3991;SDS011;2010;48.194;16.394;2023-07-22T02:51:46;3.90;;;3.60;;
3991;SDS011;2010;48.194;16.394;2023-07-22T02:54:17;3.30;;;3.03;;
3991;SDS011;2010;48.194;16.394;2023-07-22T02:56:59;3.73;;;3.00;;
3991;SDS011;2010;48.194;16.394;2023-07-22T02:59:28;4.10;;;3.80;;
3991;SDS011;2010;48.194;16.394;2023-07-22T03:01:59;3.53;;;3.23;;
3991;SDS011;2010;48.194;16.394;2023-07-22T03:04:35;3.70;;;3.37;;
3991;SDS011;2010;48.194;16.394;2023-07-22T03:07:05;4.33;;;2.83;;
3991;SDS011;2010;48.194;16.394;2023-07-22T03:09:46;5.23;;;3.73;;
3991;SDS011;2010;48.194;16.394;2023-07-22T03:12:19;4.00;;;3.57;;
3991;SDS011;2010;48.194;16.394;2023-07-22T03:14:50;3.80;;;3.40;;
3991;SDS011;2010;48.194;16.394;2023-07-22T03:17:21;7.50;;;3.73;;
3991;SDS011;2010;48.194;16.394;2023-07-22T03:19:53;5.90;;;3.40;;
3991;SDS011;2010;48.194;16.394;2023-07-22T03:22:26;3.87;;;3.57;;
3991;SDS011;2010;48.194;16.394;2023-07-22T03:24:56;3.50;;;3.20;;
3991;SDS011;2010;48.194;16.394;2023-07-22T03:27:25;5.67;;;3.17;;
3991;SDS011;2010;48.194;16.394;2023-07-22T03:30:02;4.57;;;3.00;;
3991;SDS011;2010;48.194;16.394;2023-07-22T03:32:37;5.90;;;3.60;;
3991;SDS011;2010;48.194;16.394;2023-07-22T03:35:07;3.90;;;3.37;;
3991;SDS011;2010;48.194;16.394;2023-07-22T03:37:42;3.00;;;2.80;;
3991;SDS011;2010;48.194;16.394;2023-07-22T03:40:17;4.23;;;3.70;;
3991;SDS011;2010;48.194;16.394;2023-07-22T03:43:00;3.57;;;3.27;;
3991;SDS011;2010;48.194;16.394;2023-07-22T03:45:31;4.90;;;3.73;;
3991;SDS011;2010;48.194;16.394;2023-07-22T03:48:01;3.83;;;3.40;;
3991;SDS011;2010;48.194;16.394;2023-07-22T03:50:31;6.20;;;3.03;;
3991;SDS011;2010;48.194;16.394;2023-07-22T03:52:59;3.30;;;2.90;;
3991;SDS011;2010;48.194;16.394;2023-07-22T03:55:38;5.33;;;2.93;;
3991;SDS011;2010;48.194;16.394;2023-07-22T03:58:08;3.37;;;2.87;;
3991;SDS011;2010;48.194;16.394;2023-07-22T04:00:38;3.10;;;2.87;;
3991;SDS011;2010;48.194;16.394;2023-07-22T04:03:09;3.33;;;2.97;;
3991;SDS011;2010;48.194;16.394;2023-07-22T04:05:40;3.87;;;3.00;;
3991;SDS011;2010;48.194;16.394;2023-07-22T04:08:24;5.23;;;3.07;;
3991;SDS011;2010;48.194;16.394;2023-07-22T04:11:01;3.90;;;2.87;;
3991;SDS011;2010;48.194;16.394;2023-07-22T04:13:39;2.90;;;2.70;;
3991;SDS011;2010;48.194;16.394;2023-07-22T04:16:11;3.43;;;2.60;;
3991;SDS011;2010;48.194;16.394;2023-07-22T04:18:39;3.00;;;2.73;;
3991;SDS011;2010;48.194;16.394;2023-07-22T04:21:09;4.53;;;3.53;;
3991;SDS011;2010;48.194;16.394;2023-07-22T04:23:41;3.30;;;3.00;;
3991;SDS011;2010;48.194;16.394;2023-07-22T04:26:12;4.23;;;2.73;;
3991;SDS011;2010;48.194;16.394;2023-07-22T04:28:46;9.67;;;3.10;;
3991;SDS011;2010;48.194;16.394;2023-07-22T04:31:16;2.77;;;2.57;;
3991;SDS011;2010;48.194;16.394;2023-07-22T04:33:54;4.47;;;3.07;;
3991;SDS011;2010;48.194;16.394;2023-07-22T04:36:23;2.90;;;2.70;;
3991;SDS011;2010;48.194;16.394;2023-07-22T04:38:54;4.30;;;3.20;;
3991;SDS011;2010;48.194;16.394;2023-07-22T04:41:32;4.30;;;3.17;;
3991;SDS011;2010;48.194;16.394;2023-07-22T04:44:05;3.20;;;2.80;;
3991;SDS011;2010;48.194;16.394;2023-07-22T04:46:35;6.23;;;3.00;;
3991;SDS011;2010;48.194;16.394;2023-07-22T04:49:04;3.00;;;2.80;;
3991;SDS011;2010;48.194;16.394;2023-07-22T04:51:34;3.07;;;2.43;;
3991;SDS011;2010;48.194;16.394;2023-07-22T04:54:02;3.20;;;2.97;;
3991;SDS011;2010;48.194;16.394;2023-07-22T04:56:33;2.97;;;2.77;;
3991;SDS011;2010;48.194;16.394;2023-07-22T04:59:09;2.63;;;2.40;;
3991;SDS011;2010;48.194;16.394;2023-07-22T05:01:45;3.50;;;2.53;;
3991;SDS011;2010;48.194;16.394;2023-07-22T05:04:22;5.00;;;2.90;;
3991;SDS011;2010;48.194;16.394;2023-07-22T05:06:52;3.27;;;2.90;;
3991;SDS011;2010;48.194;16.394;2023-07-22T05:09:25;3.27;;;2.73;;
3991;SDS011;2010;48.194;16.394;2023-07-22T05:12:05;3.53;;;2.87;;
3991;SDS011;2010;48.194;16.394;2023-07-22T05:14:46;3.10;;;2.47;;
3991;SDS011;2010;48.194;16.394;2023-07-22T05:17:24;3.40;;;3.10;;
3991;SDS011;2010;48.194;16.394;2023-07-22T05:19:58;2.70;;;2.50;;
3991;SDS011;2010;48.194;16.394;2023-07-22T05:22:29;3.90;;;2.80;;
3991;SDS011;2010;48.194;16.394;2023-07-22T05:25:02;7.27;;;3.33;;
3991;SDS011;2010;48.194;16.394;2023-07-22T05:27:32;3.17;;;2.87;;
3991;SDS011;2010;48.194;16.394;2023-07-22T05:30:11;6.50;;;2.90;;
3991;SDS011;2010;48.194;16.394;2023-07-22T05:32:54;3.20;;;2.90;;
3991;SDS011;2010;48.194;16.394;2023-07-22T05:35:26;4.80;;;3.03;;
3991;SDS011;2010;48.194;16.394;2023-07-22T05:38:03;3.43;;;3.13;;
3991;SDS011;2010;48.194;16.394;2023-07-22T05:40:40;3.77;;;3.47;;
3991;SDS011;2010;48.194;16.394;2023-07-22T05:43:09;4.33;;;3.00;;
3991;SDS011;2010;48.194;16.394;2023-07-22T05:45:44;7.10;;;3.30;;
3991;SDS011;2010;48.194;16.394;2023-07-22T05:48:15;5.10;;;3.13;;
3991;SDS011;2010;48.194;16.394;2023-07-22T05:50:49;2.67;;;2.43;;
3991;SDS011;2010;48.194;16.394;2023-07-22T05:53:24;2.67;;;2.47;;
3991;SDS011;2010;48.194;16.394;2023-07-22T05:55:54;3.17;;;2.87;;
3991;SDS011;2010;48.194;16.394;2023-07-22T05:58:22;4.47;;;3.50;;
3991;SDS011;2010;48.194;16.394;2023-07-22T06:00:55;4.90;;;3.07;;
3991;SDS011;2010;48.194;16.394;2023-07-22T06:03:23;3.70;;;3.30;;
3991;SDS011;2010;48.194;16.394;2023-07-22T06:05:58;4.33;;;3.33;;
3991;SDS011;2010;48.194;16.394;2023-07-22T06:08:31;5.70;;;3.33;;
3991;SDS011;2010;48.194;16.394;2023-07-22T06:11:01;3.20;;;2.90;;
3991;SDS011;2010;48.194;16.394;2023-07-22T06:13:33;7.83;;;3.57;;
3991;SDS011;2010;48.194;16.394;2023-07-22T06:16:10;13.10;;;3.40;;
3991;SDS011;2010;48.194;16.394;2023-07-22T06:18:42;7.83;;;3.90;;
3991;SDS011;2010;48.194;16.394;2023-07-22T06:21:12;5.87;;;2.70;;
3991;SDS011;2010;48.194;16.394;2023-07-22T06:23:42;3.07;;;2.80;;
3991;SDS011;2010;48.194;16.394;2023-07-22T06:26:15;3.00;;;2.80;;
3991;SDS011;2010;48.194;16.394;2023-07-22T06:28:48;3.03;;;2.83;;
3991;SDS011;2010;48.194;16.394;2023-07-22T06:31:24;2.80;;;2.60;;
3991;SDS011;2010;48.194;16.394;2023-07-22T06:33:58;5.97;;;2.90;;
3991;SDS011;2010;48.194;16.394;2023-07-22T06:36:35;8.17;;;2.90;;
3991;SDS011;2010;48.194;16.394;2023-07-22T06:39:11;2.40;;;2.20;;
3991;SDS011;2010;48.194;16.394;2023-07-22T06:41:51;3.43;;;3.20;;
3991;SDS011;2010;48.194;16.394;2023-07-22T06:44:27;4.83;;;2.90;;
3991;SDS011;2010;48.194;16.394;2023-07-22T06:47:06;3.00;;;2.70;;
3991;SDS011;2010;48.194;16.394;2023-07-22T06:49:38;3.57;;;2.93;;
3991;SDS011;2010;48.194;16.394;2023-07-22T06:52:12;3.40;;;2.50;;
3991;SDS011;2010;48.194;16.394;2023-07-22T06:54:42;5.13;;;2.30;;
3991;SDS011;2010;48.194;16.394;2023-07-22T06:57:15;3.43;;;2.20;;
3991;SDS011;2010;48.194;16.394;2023-07-22T06:59:53;2.67;;;2.13;;
3991;SDS011;2010;48.194;16.394;2023-07-22T07:02:29;2.83;;;2.33;;
3991;SDS011;2010;48.194;16.394;2023-07-22T07:04:57;4.33;;;2.57;;
3991;SDS011;2010;48.194;16.394;2023-07-22T07:07:27;3.00;;;2.80;;
3991;SDS011;2010;48.194;16.394;2023-07-22T07:10:04;3.20;;;2.83;;
3991;SDS011;2010;48.194;16.394;2023-07-22T07:12:41;6.83;;;2.67;;
3991;SDS011;2010;48.194;16.394;2023-07-22T07:15:14;2.03;;;1.93;;
3991;SDS011;2010;48.194;16.394;2023-07-22T07:17:48;2.80;;;2.60;;
3991;SDS011;2010;48.194;16.394;2023-07-22T07:20:18;5.33;;;2.97;;
3991;SDS011;2010;48.194;16.394;2023-07-22T07:22:51;4.03;;;2.10;;
3991;SDS011;2010;48.194;16.394;2023-07-22T07:25:25;4.23;;;2.70;;
3991;SDS011;2010;48.194;16.394;2023-07-22T07:27:54;2.43;;;2.23;;
3991;SDS011;2010;48.194;16.394;2023-07-22T07:30:22;2.23;;;2.03;;
3991;SDS011;2010;48.194;16.394;2023-07-22T07:32:57;2.83;;;2.17;;
3991;SDS011;2010;48.194;16.394;2023-07-22T07:35:27;2.63;;;2.43;;
3991;SDS011;2010;48.194;16.394;2023-07-22T07:37:55;2.00;;;1.90;;
3991;SDS011;2010;48.194;16.394;2023-07-22T07:40:27;3.00;;;2.57;;
3991;SDS011;2010;48.194;16.394;2023-07-22T07:42:56;2.07;;;1.93;;
3991;SDS011;2010;48.194;16.394;2023-07-22T07:45:27;3.40;;;2.53;;
3991;SDS011;2010;48.194;16.394;2023-07-22T07:48:00;4.63;;;2.33;;
3991;SDS011;2010;48.194;16.394;2023-07-22T07:50:30;2.43;;;2.23;;
3991;SDS011;2010;48.194;16.394;2023-07-22T07:53:00;2.03;;;1.83;;
3991;SDS011;2010;48.194;16.394;2023-07-22T07:55:31;3.43;;;2.60;;
3991;SDS011;2010;48.194;16.394;2023-07-22T07:58:03;2.30;;;2.10;;
3991;SDS011;2010;48.194;16.394;2023-07-22T08:00:34;2.93;;;2.30;;
3991;SDS011;2010;48.194;16.394;2023-07-22T08:03:08;5.00;;;3.00;;
3991;SDS011;2010;48.194;16.394;2023-07-22T08:05:38;4.50;;;2.50;;
3991;SDS011;2010;48.194;16.394;2023-07-22T08:08:22;2.63;;;2.27;;
3991;SDS011;2010;48.194;16.394;2023-07-22T08:11:00;3.03;;;2.67;;
3991;SDS011;2010;48.194;16.394;2023-07-22T08:13:54;6.70;;;2.20;;
3991;SDS011;2010;48.194;16.394;2023-07-22T08:16:25;3.10;;;2.50;;
3991;SDS011;2010;48.194;16.394;2023-07-22T08:19:10;2.30;;;2.20;;
3991;SDS011;2010;48.194;16.394;2023-07-22T08:21:42;2.73;;;2.53;;
3991;SDS011;2010;48.194;16.394;2023-07-22T08:24:15;2.20;;;2.10;;
3991;SDS011;2010;48.194;16.394;2023-07-22T08:26:47;5.70;;;2.27;;
3991;SDS011;2010;48.194;16.394;2023-07-22T08:29:23;2.37;;;2.17;;
3991;SDS011;2010;48.194;16.394;2023-07-22T08:31:56;2.33;;;2.13;;
3991;SDS011;2010;48.194;16.394;2023-07-22T08:34:30;2.30;;;2.00;;
3991;SDS011;2010;48.194;16.394;2023-07-22T08:37:00;4.00;;;1.87;;
3991;SDS011;2010;48.194;16.394;2023-07-22T08:39:39;6.20;;;2.20;;
3991;SDS011;2010;48.194;16.394;2023-07-22T08:42:09;2.17;;;2.07;;
3991;SDS011;2010;48.194;16.394;2023-07-22T08:44:40;2.73;;;2.20;;
3991;SDS011;2010;48.194;16.394;2023-07-22T08:47:15;3.93;;;2.40;;
3991;SDS011;2010;48.194;16.394;2023-07-22T08:49:49;2.23;;;2.10;;
3991;SDS011;2010;48.194;16.394;2023-07-22T08:52:41;2.40;;;2.20;;
3991;SDS011;2010;48.194;16.394;2023-07-22T08:55:12;2.07;;;1.87;;
3991;SDS011;2010;48.194;16.394;2023-07-22T08:57:42;3.40;;;2.30;;
3991;SDS011;2010;48.194;16.394;2023-07-22T09:00:13;2.30;;;2.10;;
3991;SDS011;2010;48.194;16.394;2023-07-22T09:02:44;2.30;;;2.07;;
3991;SDS011;2010;48.194;16.394;2023-07-22T09:05:16;5.17;;;2.43;;
3991;SDS011;2010;48.194;16.394;2023-07-22T09:07:48;2.73;;;2.33;;
3991;SDS011;2010;48.194;16.394;2023-07-22T09:10:18;4.93;;;2.23;;
3991;SDS011;2010;48.194;16.394;2023-07-22T09:12:58;2.63;;;1.80;;
3991;SDS011;2010;48.194;16.394;2023-07-22T09:15:29;2.37;;;2.20;;
3991;SDS011;2010;48.194;16.394;2023-07-22T09:18:04;1.90;;;1.80;;
3991;SDS011;2010;48.194;16.394;2023-07-22T09:20:40;2.37;;;1.80;;
3991;SDS011;2010;48.194;16.394;2023-07-22T09:23:31;2.90;;;2.27;;
3991;SDS011;2010;48.194;16.394;2023-07-22T09:26:11;1.90;;;1.80;;
3991;SDS011;2010;48.194;16.394;2023-07-22T09:28:52;1.60;;;1.50;;
3991;SDS011;2010;48.194;16.394;2023-07-22T09:31:27;3.50;;;1.90;;
3991;SDS011;2010;48.194;16.394;2023-07-22T09:34:10;1.83;;;1.73;;
3991;SDS011;2010;48.194;16.394;2023-07-22T09:36:57;2.00;;;1.90;;
3991;SDS011;2010;48.194;16.394;2023-07-22T09:39:37;1.63;;;1.53;;
3991;SDS011;2010;48.194;16.394;2023-07-22T09:42:06;2.00;;;1.90;;
3991;SDS011;2010;48.194;16.394;2023-07-22T09:44:36;2.07;;;1.97;;
3991;SDS011;2010;48.194;16.394;2023-07-22T09:47:07;3.47;;;1.77;;
3991;SDS011;2010;48.194;16.394;2023-07-22T09:49:40;2.40;;;2.20;;
3991;SDS011;2010;48.194;16.394;2023-07-22T09:52:12;2.13;;;1.93;;
3991;SDS011;2010;48.194;16.394;2023-07-22T09:54:49;1.73;;;1.63;;
3991;SDS011;2010;48.194;16.394;2023-07-22T09:57:19;1.90;;;1.80;;
3991;SDS011;2010;48.194;16.394;2023-07-22T10:00:00;4.13;;;1.80;;
3991;SDS011;2010;48.194;16.394;2023-07-22T10:02:41;2.47;;;2.27;;
3991;SDS011;2010;48.194;16.394;2023-07-22T10:05:12;2.10;;;1.90;;
3991;SDS011;2010;48.194;16.394;2023-07-22T10:08:02;2.30;;;2.10;;
3991;SDS011;2010;48.194;16.394;2023-07-22T10:10:37;2.20;;;2.00;;
3991;SDS011;2010;48.194;16.394;2023-07-22T10:13:11;3.50;;;1.80;;
3991;SDS011;2010;48.194;16.394;2023-07-22T10:15:42;1.70;;;1.60;;
3991;SDS011;2010;48.194;16.394;2023-07-22T10:18:11;2.30;;;2.13;;
3991;SDS011;2010;48.194;16.394;2023-07-22T10:20:42;1.70;;;1.60;;
3991;SDS011;2010;48.194;16.394;2023-07-22T10:23:21;2.57;;;2.10;;
3991;SDS011;2010;48.194;16.394;2023-07-22T10:25:53;2.87;;;2.10;;
3991;SDS011;2010;48.194;16.394;2023-07-22T10:28:25;2.10;;;2.00;;
3991;SDS011;2010;48.194;16.394;2023-07-22T10:30:58;2.13;;;2.00;;
3991;SDS011;2010;48.194;16.394;2023-07-22T10:33:30;2.93;;;2.60;;
3991;SDS011;2010;48.194;16.394;2023-07-22T10:36:02;2.70;;;2.07;;
3991;SDS011;2010;48.194;16.394;2023-07-22T10:39:06;1.80;;;1.70;;
3991;SDS011;2010;48.194;16.394;2023-07-22T10:41:46;2.40;;;2.30;;
3991;SDS011;2010;48.194;16.394;2023-07-22T10:44:24;1.90;;;1.70;;
3991;SDS011;2010;48.194;16.394;2023-07-22T10:46:56;2.40;;;1.90;;
3991;SDS011;2010;48.194;16.394;2023-07-22T10:49:28;2.60;;;2.40;;
3991;SDS011;2010;48.194;16.394;2023-07-22T10:52:11;2.30;;;2.10;;
3991;SDS011;2010;48.194;16.394;2023-07-22T10:54:56;3.23;;;2.03;;
3991;SDS011;2010;48.194;16.394;2023-07-22T10:57:25;2.13;;;2.03;;
3991;SDS011;2010;48.194;16.394;2023-07-22T11:00:18;1.93;;;1.80;;
3991;SDS011;2010;48.194;16.394;2023-07-22T11:05:51;1.80;;;1.70;;
3991;SDS011;2010;48.194;16.394;2023-07-22T11:08:39;1.53;;;1.43;;
3991;SDS011;2010;48.194;16.394;2023-07-22T11:11:21;4.00;;;2.10;;
3991;SDS011;2010;48.194;16.394;2023-07-22T11:13:53;1.83;;;1.73;;
3991;SDS011;2010;48.194;16.394;2023-07-22T11:16:30;6.10;;;1.90;;
3991;SDS011;2010;48.194;16.394;2023-07-22T11:18:59;2.10;;;2.00;;
3991;SDS011;2010;48.194;16.394;2023-07-22T11:21:31;3.80;;;1.83;;
3991;SDS011;2010;48.194;16.394;2023-07-22T11:24:07;2.23;;;1.70;;
3991;SDS011;2010;48.194;16.394;2023-07-22T11:26:38;1.90;;;1.80;;
3991;SDS011;2010;48.194;16.394;2023-07-22T11:29:12;2.00;;;1.80;;
3991;SDS011;2010;48.194;16.394;2023-07-22T11:31:44;2.10;;;2.00;;
3991;SDS011;2010;48.194;16.394;2023-07-22T11:34:15;2.40;;;2.20;;
3991;SDS011;2010;48.194;16.394;2023-07-22T11:36:46;2.20;;;2.03;;
3991;SDS011;2010;48.194;16.394;2023-07-22T11:39:16;2.10;;;1.90;;
3991;SDS011;2010;48.194;16.394;2023-07-22T11:41:48;2.23;;;2.13;;
3991;SDS011;2010;48.194;16.394;2023-07-22T11:44:18;2.10;;;2.00;;
3991;SDS011;2010;48.194;16.394;2023-07-22T11:46:53;3.00;;;2.80;;
3991;SDS011;2010;48.194;16.394;2023-07-22T11:49:26;2.30;;;2.20;;
3991;SDS011;2010;48.194;16.394;2023-07-22T11:51:59;2.53;;;2.33;;
3991;SDS011;2010;48.194;16.394;2023-07-22T11:54:35;2.37;;;2.17;;
3991;SDS011;2010;48.194;16.394;2023-07-22T11:57:23;5.07;;;2.00;;
3991;SDS011;2010;48.194;16.394;2023-07-22T11:59:57;3.17;;;2.87;;
3991;SDS011;2010;48.194;16.394;2023-07-22T12:02:49;3.23;;;2.43;;
3991;SDS011;2010;48.194;16.394;2023-07-22T12:05:24;2.27;;;2.07;;
3991;SDS011;2010;48.194;16.394;2023-07-22T12:07:54;2.33;;;2.23;;
3991;SDS011;2010;48.194;16.394;2023-07-22T12:10:24;1.93;;;1.80;;
3991;SDS011;2010;48.194;16.394;2023-07-22T12:13:00;3.10;;;2.60;;
3991;SDS011;2010;48.194;16.394;2023-07-22T12:15:29;2.50;;;2.30;;
3991;SDS011;2010;48.194;16.394;2023-07-22T12:18:00;2.43;;;2.33;;
3991;SDS011;2010;48.194;16.394;2023-07-22T12:20:31;2.70;;;2.50;;
3991;SDS011;2010;48.194;16.394;2023-07-22T12:23:11;3.13;;;2.57;;
3991;SDS011;2010;48.194;16.394;2023-07-22T12:25:47;2.40;;;2.30;;
3991;SDS011;2010;48.194;16.394;2023-07-22T12:28:21;3.30;;;2.00;;
3991;SDS011;2010;48.194;16.394;2023-07-22T12:30:53;2.10;;;2.00;;
3991;SDS011;2010;48.194;16.394;2023-07-22T12:33:25;2.53;;;2.27;;
3991;SDS011;2010;48.194;16.394;2023-07-22T12:35:57;4.20;;;2.20;;
3991;SDS011;2010;48.194;16.394;2023-07-22T12:38:26;2.00;;;1.90;;
3991;SDS011;2010;48.194;16.394;2023-07-22T12:41:06;2.50;;;2.30;;
3991;SDS011;2010;48.194;16.394;2023-07-22T12:43:39;1.93;;;1.80;;
3991;SDS011;2010;48.194;16.394;2023-07-22T12:46:07;2.40;;;2.20;;
3991;SDS011;2010;48.194;16.394;2023-07-22T12:48:45;2.33;;;2.13;;
3991;SDS011;2010;48.194;16.394;2023-07-22T12:51:22;2.43;;;2.23;;
3991;SDS011;2010;48.194;16.394;2023-07-22T12:53:54;2.30;;;2.20;;
3991;SDS011;2010;48.194;16.394;2023-07-22T12:56:25;2.60;;;2.40;;
3991;SDS011;2010;48.194;16.394;2023-07-22T12:58:56;3.23;;;2.40;;
3991;SDS011;2010;48.194;16.394;2023-07-22T13:01:27;3.93;;;2.20;;
3991;SDS011;2010;48.194;16.394;2023-07-22T13:03:59;2.60;;;2.40;;
3991;SDS011;2010;48.194;16.394;2023-07-22T13:06:29;2.10;;;2.00;;
3991;SDS011;2010;48.194;16.394;2023-07-22T13:09:03;3.20;;;2.20;;
3991;SDS011;2010;48.194;16.394;2023-07-22T13:11:37;1.80;;;1.70;;
3991;SDS011;2010;48.194;16.394;2023-07-22T13:14:07;2.00;;;1.83;;
3991;SDS011;2010;48.194;16.394;2023-07-22T13:16:44;3.57;;;2.10;;
3991;SDS011;2010;48.194;16.394;2023-07-22T13:19:12;3.23;;;2.03;;
3991;SDS011;2010;48.194;16.394;2023-07-22T13:21:43;2.40;;;2.20;;
3991;SDS011;2010;48.194;16.394;2023-07-22T13:24:12;2.40;;;2.20;;
3991;SDS011;2010;48.194;16.394;2023-07-22T13:26:43;2.37;;;2.27;;
3991;SDS011;2010;48.194;16.394;2023-07-22T13:29:19;1.90;;;1.80;;
3991;SDS011;2010;48.194;16.394;2023-07-22T13:31:47;4.57;;;2.40;;
3991;SDS011;2010;48.194;16.394;2023-07-22T13:34:17;3.13;;;2.07;;
3991;SDS011;2010;48.194;16.394;2023-07-22T13:36:48;3.73;;;2.27;;
3991;SDS011;2010;48.194;16.394;2023-07-22T13:39:19;2.77;;;1.93;;
3991;SDS011;2010;48.194;16.394;2023-07-22T13:41:51;5.03;;;2.10;;
3991;SDS011;2010;48.194;16.394;2023-07-22T13:44:26;2.40;;;2.20;;
3991;SDS011;2010;48.194;16.394;2023-07-22T13:46:56;2.10;;;2.00;;
3991;SDS011;2010;48.194;16.394;2023-07-22T13:49:34;2.53;;;2.00;;
3991;SDS011;2010;48.194;16.394;2023-07-22T13:52:04;2.60;;;2.40;;
3991;SDS011;2010;48.194;16.394;2023-07-22T13:54:44;2.80;;;2.47;;
3991;SDS011;2010;48.194;16.394;2023-07-22T13:57:14;2.63;;;2.43;;
3991;SDS011;2010;48.194;16.394;2023-07-22T13:59:48;2.80;;;2.30;;
3991;SDS011;2010;48.194;16.394;2023-07-22T14:02:17;3.83;;;2.67;;
3991;SDS011;2010;48.194;16.394;2023-07-22T14:04:49;2.70;;;2.50;;
3991;SDS011;2010;48.194;16.394;2023-07-22T14:07:26;2.30;;;2.10;;
3991;SDS011;2010;48.194;16.394;2023-07-22T14:09:59;2.33;;;2.17;;
3991;SDS011;2010;48.194;16.394;2023-07-22T14:12:31;2.17;;;2.03;;
3991;SDS011;2010;48.194;16.394;2023-07-22T14:15:06;2.10;;;2.00;;
3991;SDS011;2010;48.194;16.394;2023-07-22T14:17:39;2.50;;;2.30;;
3991;SDS011;2010;48.194;16.394;2023-07-22T14:20:08;2.77;;;2.57;;
3991;SDS011;2010;48.194;16.394;2023-07-22T14:22:41;2.27;;;2.07;;
3991;SDS011;2010;48.194;16.394;2023-07-22T14:25:13;2.30;;;2.20;;
3991;SDS011;2010;48.194;16.394;2023-07-22T14:27:51;4.80;;;2.87;;
3991;SDS011;2010;48.194;16.394;2023-07-22T14:30:29;2.80;;;2.60;;
3991;SDS011;2010;48.194;16.394;2023-07-22T14:32:58;2.50;;;2.30;;
3991;SDS011;2010;48.194;16.394;2023-07-22T14:35:33;2.50;;;2.30;;
3991;SDS011;2010;48.194;16.394;2023-07-22T14:38:08;3.07;;;2.23;;
3991;SDS011;2010;48.194;16.394;2023-07-22T14:40:40;2.57;;;2.20;;
3991;SDS011;2010;48.194;16.394;2023-07-22T14:43:15;2.17;;;1.97;;
3991;SDS011;2010;48.194;16.394;2023-07-22T14:45:52;1.90;;;1.80;;
3991;SDS011;2010;48.194;16.394;2023-07-22T14:48:27;2.10;;;2.00;;
3991;SDS011;2010;48.194;16.394;2023-07-22T14:50:58;2.60;;;2.50;;
3991;SDS011;2010;48.194;16.394;2023-07-22T14:53:27;3.00;;;2.50;;
3991;SDS011;2010;48.194;16.394;2023-07-22T14:56:01;2.67;;;2.47;;
3991;SDS011;2010;48.194;16.394;2023-07-22T14:58:35;2.43;;;2.10;;
3991;SDS011;2010;48.194;16.394;2023-07-22T15:01:17;2.33;;;2.20;;
3991;SDS011;2010;48.194;16.394;2023-07-22T15:03:55;2.20;;;2.10;;
3991;SDS011;2010;48.194;16.394;2023-07-22T15:06:39;2.87;;;2.67;;
3991;SDS011;2010;48.194;16.394;2023-07-22T15:09:10;2.80;;;2.60;;
3991;SDS011;2010;48.194;16.394;2023-07-22T15:11:39;2.40;;;2.30;;
3991;SDS011;2010;48.194;16.394;2023-07-22T15:14:11;2.37;;;2.27;;
3991;SDS011;2010;48.194;16.394;2023-07-22T15:16:47;2.17;;;2.07;;
3991;SDS011;2010;48.194;16.394;2023-07-22T15:19:20;2.87;;;2.67;;
3991;SDS011;2010;48.194;16.394;2023-07-22T15:21:52;3.00;;;2.80;;
3991;SDS011;2010;48.194;16.394;2023-07-22T15:24:20;2.43;;;2.23;;
3991;SDS011;2010;48.194;16.394;2023-07-22T15:26:51;3.00;;;2.70;;
3991;SDS011;2010;48.194;16.394;2023-07-22T15:29:22;3.97;;;3.07;;
3991;SDS011;2010;48.194;16.394;2023-07-22T15:31:59;2.83;;;2.63;;
3991;SDS011;2010;48.194;16.394;2023-07-22T15:34:28;4.20;;;2.90;;
3991;SDS011;2010;48.194;16.394;2023-07-22T15:36:59;7.50;;;3.47;;
3991;SDS011;2010;48.194;16.394;2023-07-22T15:39:31;3.77;;;2.80;;
3991;SDS011;2010;48.194;16.394;2023-07-22T15:42:03;4.23;;;3.07;;